sensor_id;sensor_type;location;lat;lon;timestamp;pressure;altitude;pressure_sealevel;temperature;humidity
59443;BME280;45247;47.466;19.004;2023-04-24T00:01:48;99146.91;;;11.83;86.05
59443;BME280;45247;47.466;19.004;2023-04-24T00:04:18;99147.41;;;11.88;88.12
59443;BME280;45247;47.466;19.004;2023-04-24T00:06:46;99149.59;;;12.05;85.05
59443;BME280;45247;47.466;19.004;2023-04-24T00:09:16;99144.66;;;12.12;84.85
59443;BME280;45247;47.466;19.004;2023-04-24T00:11:44;99145.16;;;12.17;84.50
59443;BME280;45247;47.466;19.004;2023-04-24T00:14:12;99158.72;;;12.23;84.33
59443;BME280;45247;47.466;19.004;2023-04-24T00:16:40;99156.91;;;12.24;82.93
59443;BME280;45247;47.466;19.004;2023-04-24T00:19:09;99155.84;;;12.26;81.32
59443;BME280;45247;47.466;19.004;2023-04-24T00:21:40;99154.03;;;12.27;81.17
59443;BME280;45247;47.466;19.004;2023-04-24T00:24:08;99155.25;;;12.34;80.00
59443;BME280;45247;47.466;19.004;2023-04-24T00:26:37;99142.50;;;12.39;80.64
59443;BME280;45247;47.466;19.004;2023-04-24T00:29:05;99145.84;;;12.41;80.06
59443;BME280;45247;47.466;19.004;2023-04-24T00:31:33;99147.56;;;12.42;79.24
59443;BME280;45247;47.466;19.004;2023-04-24T00:34:02;99147.28;;;12.45;78.54
59443;BME280;45247;47.466;19.004;2023-04-24T00:36:30;99140.19;;;12.46;77.78
59443;BME280;45247;47.466;19.004;2023-04-24T00:39:00;99156.69;;;12.49;78.05
59443;BME280;45247;47.466;19.004;2023-04-24T00:41:29;99156.56;;;12.51;81.96
59443;BME280;45247;47.466;19.004;2023-04-24T00:43:57;99146.69;;;12.42;86.53
59443;BME280;45247;47.466;19.004;2023-04-24T00:46:26;99140.31;;;12.33;87.27
59443;BME280;45247;47.466;19.004;2023-04-24T00:48:55;99138.41;;;12.24;87.75
59443;BME280;45247;47.466;19.004;2023-04-24T00:51:23;99128.31;;;12.18;86.10
59443;BME280;45247;47.466;19.004;2023-04-24T00:53:52;99130.47;;;12.13;84.06
59443;BME280;45247;47.466;19.004;2023-04-24T00:56:21;99122.06;;;12.08;85.43
59443;BME280;45247;47.466;19.004;2023-04-24T00:58:50;99131.19;;;12.03;86.20
59443;BME280;45247;47.466;19.004;2023-04-24T01:01:19;99128.88;;;11.99;85.69
59443;BME280;45247;47.466;19.004;2023-04-24T01:03:49;99135.03;;;11.99;85.88
59443;BME280;45247;47.466;19.004;2023-04-24T01:06:19;99133.59;;;11.95;85.93
59443;BME280;45247;47.466;19.004;2023-04-24T01:08:48;99129.50;;;12.02;85.40
59443;BME280;45247;47.466;19.004;2023-04-24T01:11:17;99131.19;;;12.03;85.08
59443;BME280;45247;47.466;19.004;2023-04-24T01:13:47;99125.66;;;12.07;86.60
59443;BME280;45247;47.466;19.004;2023-04-24T01:16:15;99120.97;;;12.10;86.16
59443;BME280;45247;47.466;19.004;2023-04-24T01:18:45;99127.84;;;12.13;86.43
59443;BME280;45247;47.466;19.004;2023-04-24T01:21:14;99127.72;;;12.14;86.63
59443;BME280;45247;47.466;19.004;2023-04-24T01:23:45;99126.75;;;12.15;86.95
59443;BME280;45247;47.466;19.004;2023-04-24T01:26:15;99119.63;;;12.16;86.94
59443;BME280;45247;47.466;19.004;2023-04-24T01:28:44;99113.41;;;12.17;87.51
59443;BME280;45247;47.466;19.004;2023-04-24T01:31:12;99108.22;;;12.15;87.94
59443;BME280;45247;47.466;19.004;2023-04-24T01:33:41;99109.06;;;12.16;88.08
59443;BME280;45247;47.466;19.004;2023-04-24T01:36:10;99107.16;;;12.18;88.70
59443;BME280;45247;47.466;19.004;2023-04-24T01:38:39;99094.91;;;12.17;90.32
59443;BME280;45247;47.466;19.004;2023-04-24T01:41:08;99093.78;;;12.19;90.35
59443;BME280;45247;47.466;19.004;2023-04-24T01:43:37;99083.59;;;12.26;96.40
59443;BME280;45247;47.466;19.004;2023-04-24T01:46:06;99083.81;;;12.23;100.00
59443;BME280;45247;47.466;19.004;2023-04-24T01:48:35;99087.19;;;12.14;100.00
59443;BME280;45247;47.466;19.004;2023-04-24T01:51:03;99083.69;;;12.02;100.00
59443;BME280;45247;47.466;19.004;2023-04-24T01:53:31;99072.03;;;11.93;100.00
59443;BME280;45247;47.466;19.004;2023-04-24T01:55:59;99066.97;;;11.90;100.00
59443;BME280;45247;47.466;19.004;2023-04-24T01:58:30;99070.13;;;11.95;100.00
59443;BME280;45247;47.466;19.004;2023-04-24T02:00:58;99062.44;;;11.92;100.00
59443;BME280;45247;47.466;19.004;2023-04-24T02:03:27;99057.38;;;11.89;100.00
59443;BME280;45247;47.466;19.004;2023-04-24T02:05:55;99056.78;;;11.86;100.00
59443;BME280;45247;47.466;19.004;2023-04-24T02:08:24;99044.84;;;11.80;100.00
59443;BME280;45247;47.466;19.004;2023-04-24T02:10:52;99047.25;;;11.72;100.00
59443;BME280;45247;47.466;19.004;2023-04-24T02:13:20;99039.91;;;11.64;100.00
59443;BME280;45247;47.466;19.004;2023-04-24T02:15:49;99040.63;;;11.55;100.00
59443;BME280;45247;47.466;19.004;2023-04-24T02:18:17;99038.34;;;11.50;100.00
59443;BME280;45247;47.466;19.004;2023-04-24T02:20:45;99032.34;;;11.48;100.00
59443;BME280;45247;47.466;19.004;2023-04-24T02:23:13;99025.88;;;11.52;100.00
59443;BME280;45247;47.466;19.004;2023-04-24T02:25:41;99028.50;;;11.52;100.00
59443;BME280;45247;47.466;19.004;2023-04-24T02:28:10;99026.09;;;11.49;100.00
59443;BME280;45247;47.466;19.004;2023-04-24T02:30:38;99037.84;;;11.45;100.00
59443;BME280;45247;47.466;19.004;2023-04-24T02:33:07;99035.44;;;11.42;100.00
59443;BME280;45247;47.466;19.004;2023-04-24T02:35:35;99034.59;;;11.42;100.00
59443;BME280;45247;47.466;19.004;2023-04-24T02:38:03;99035.44;;;11.42;100.00
59443;BME280;45247;47.466;19.004;2023-04-24T02:40:32;99039.28;;;11.38;100.00
59443;BME280;45247;47.466;19.004;2023-04-24T02:43:00;99027.03;;;11.37;100.00
59443;BME280;45247;47.466;19.004;2023-04-24T02:45:28;99039.19;;;11.40;100.00
59443;BME280;45247;47.466;19.004;2023-04-24T02:47:56;99027.50;;;11.42;100.00
59443;BME280;45247;47.466;19.004;2023-04-24T02:50:26;99023.81;;;11.45;100.00
59443;BME280;45247;47.466;19.004;2023-04-24T02:52:54;99020.19;;;11.46;100.00
59443;BME280;45247;47.466;19.004;2023-04-24T02:55:22;99015.75;;;11.46;100.00
59443;BME280;45247;47.466;19.004;2023-04-24T02:57:50;99019.00;;;11.50;100.00
59443;BME280;45247;47.466;19.004;2023-04-24T03:00:19;99017.31;;;11.49;100.00
59443;BME280;45247;47.466;19.004;2023-04-24T03:02:47;99016.94;;;11.42;100.00
59443;BME280;45247;47.466;19.004;2023-04-24T03:05:16;99015.50;;;11.38;100.00
59443;BME280;45247;47.466;19.004;2023-04-24T03:07:46;99015.25;;;11.30;100.00
59443;BME280;45247;47.466;19.004;2023-04-24T03:10:14;99010.69;;;11.32;100.00
59443;BME280;45247;47.466;19.004;2023-04-24T03:12:42;99008.75;;;11.34;100.00
59443;BME280;45247;47.466;19.004;2023-04-24T03:15:10;99005.91;;;11.37;100.00
59443;BME280;45247;47.466;19.004;2023-04-24T03:17:38;99008.31;;;11.40;100.00
59443;BME280;45247;47.466;19.004;2023-04-24T03:20:07;99001.00;;;11.44;100.00
59443;BME280;45247;47.466;19.004;2023-04-24T03:22:36;99010.47;;;11.46;100.00
59443;BME280;45247;47.466;19.004;2023-04-24T03:25:06;99012.13;;;11.47;100.00
59443;BME280;45247;47.466;19.004;2023-04-24T03:27:36;99010.25;;;11.49;100.00
59443;BME280;45247;47.466;19.004;2023-04-24T03:30:08;99001.56;;;11.47;100.00
59443;BME280;45247;47.466;19.004;2023-04-24T03:32:36;99012.13;;;11.47;100.00
59443;BME280;45247;47.466;19.004;2023-04-24T03:35:06;99006.84;;;11.47;100.00
59443;BME280;45247;47.466;19.004;2023-04-24T03:37:35;99014.06;;;11.45;100.00
59443;BME280;45247;47.466;19.004;2023-04-24T03:40:08;99005.41;;;11.43;100.00
59443;BME280;45247;47.466;19.004;2023-04-24T03:42:37;99020.56;;;11.41;100.00
59443;BME280;45247;47.466;19.004;2023-04-24T03:45:06;99011.19;;;11.37;100.00
59443;BME280;45247;47.466;19.004;2023-04-24T03:47:35;99011.19;;;11.37;100.00
59443;BME280;45247;47.466;19.004;2023-04-24T03:50:03;99017.44;;;11.36;100.00
59443;BME280;45247;47.466;19.004;2023-04-24T03:52:31;99004.31;;;11.35;100.00
59443;BME280;45247;47.466;19.004;2023-04-24T03:55:00;99000.84;;;11.34;100.00
59443;BME280;45247;47.466;19.004;2023-04-24T03:57:29;98998.47;;;11.31;100.00
59443;BME280;45247;47.466;19.004;2023-04-24T03:59:57;98990.88;;;11.26;100.00
59443;BME280;45247;47.466;19.004;2023-04-24T04:02:25;98992.44;;;11.29;100.00
59443;BME280;45247;47.466;19.004;2023-04-24T04:04:54;99002.03;;;11.30;100.00
59443;BME280;45247;47.466;19.004;2023-04-24T04:07:22;98992.22;;;11.32;100.00
59443;BME280;45247;47.466;19.004;2023-04-24T04:09:50;98991.13;;;11.35;100.00
59443;BME280;45247;47.466;19.004;2023-04-24T04:12:18;98992.06;;;11.34;100.00
59443;BME280;45247;47.466;19.004;2023-04-24T04:14:48;99014.31;;;11.42;100.00
59443;BME280;45247;47.466;19.004;2023-04-24T04:17:16;99016.84;;;11.44;100.00
59443;BME280;45247;47.466;19.004;2023-04-24T04:19:44;99017.19;;;11.50;100.00
59443;BME280;45247;47.466;19.004;2023-04-24T04:22:12;99016.25;;;11.63;100.00
59443;BME280;45247;47.466;19.004;2023-04-24T04:24:40;99001.34;;;11.73;100.00
59443;BME280;45247;47.466;19.004;2023-04-24T04:27:09;98996.66;;;11.76;100.00
59443;BME280;45247;47.466;19.004;2023-04-24T04:29:37;99003.06;;;11.74;100.00
59443;BME280;45247;47.466;19.004;2023-04-24T04:32:08;99016.97;;;11.76;100.00
59443;BME280;45247;47.466;19.004;2023-04-24T04:34:36;99020.81;;;11.72;100.00
59443;BME280;45247;47.466;19.004;2023-04-24T04:37:06;99021.78;;;11.71;100.00
59443;BME280;45247;47.466;19.004;2023-04-24T04:39:35;99021.91;;;11.69;100.00
59443;BME280;45247;47.466;19.004;2023-04-24T04:42:03;99011.44;;;11.68;100.00
59443;BME280;45247;47.466;19.004;2023-04-24T04:44:33;99012.28;;;11.68;100.00
59443;BME280;45247;47.466;19.004;2023-04-24T04:47:02;99004.13;;;11.71;100.00
59443;BME280;45247;47.466;19.004;2023-04-24T04:49:33;98992.47;;;11.74;100.00
59443;BME280;45247;47.466;19.004;2023-04-24T04:52:01;98992.47;;;11.74;100.00
59443;BME280;45247;47.466;19.004;2023-04-24T04:54:29;98999.91;;;11.80;100.00
59443;BME280;45247;47.466;19.004;2023-04-24T04:56:57;99000.66;;;11.82;100.00
59443;BME280;45247;47.466;19.004;2023-04-24T04:59:29;99006.44;;;11.87;100.00
59443;BME280;45247;47.466;19.004;2023-04-24T05:01:57;98995.72;;;11.89;100.00
59443;BME280;45247;47.466;19.004;2023-04-24T05:04:26;98997.53;;;11.99;100.00
59443;BME280;45247;47.466;19.004;2023-04-24T05:06:56;98994.16;;;11.97;100.00
59443;BME280;45247;47.466;19.004;2023-04-24T05:09:24;98998.00;;;12.05;100.00
59443;BME280;45247;47.466;19.004;2023-04-24T05:11:53;98985.38;;;12.08;100.00
59443;BME280;45247;47.466;19.004;2023-04-24T05:14:22;98993.78;;;12.13;100.00
59443;BME280;45247;47.466;19.004;2023-04-24T05:16:50;98988.59;;;12.23;100.00
59443;BME280;45247;47.466;19.004;2023-04-24T05:19:18;98996.88;;;12.30;100.00
59443;BME280;45247;47.466;19.004;2023-04-24T05:21:46;98997.81;;;12.40;100.00
59443;BME280;45247;47.466;19.004;2023-04-24T05:24:16;98996.94;;;12.50;100.00
59443;BME280;45247;47.466;19.004;2023-04-24T05:26:44;99003.66;;;12.54;100.00
59443;BME280;45247;47.466;19.004;2023-04-24T05:29:12;98997.88;;;12.49;100.00
59443;BME280;45247;47.466;19.004;2023-04-24T05:31:40;98987.53;;;12.58;100.00
59443;BME280;45247;47.466;19.004;2023-04-24T05:34:08;98998.84;;;12.60;100.00
59443;BME280;45247;47.466;19.004;2023-04-24T05:36:36;98998.69;;;12.61;100.00
59443;BME280;45247;47.466;19.004;2023-04-24T05:39:05;98994.00;;;12.65;100.00
59443;BME280;45247;47.466;19.004;2023-04-24T05:41:35;99006.03;;;12.69;100.00
59443;BME280;45247;47.466;19.004;2023-04-24T05:44:03;98998.16;;;12.78;100.00
59443;BME280;45247;47.466;19.004;2023-04-24T05:46:31;98998.81;;;12.92;100.00
59443;BME280;45247;47.466;19.004;2023-04-24T05:49:00;99002.88;;;12.96;100.00
59443;BME280;45247;47.466;19.004;2023-04-24T05:51:28;99002.94;;;13.06;100.00
59443;BME280;45247;47.466;19.004;2023-04-24T05:53:57;99002.44;;;13.12;100.00
59443;BME280;45247;47.466;19.004;2023-04-24T05:56:25;99000.66;;;13.33;100.00
59443;BME280;45247;47.466;19.004;2023-04-24T05:58:54;99000.19;;;13.80;100.00
59443;BME280;45247;47.466;19.004;2023-04-24T06:01:22;98998.44;;;13.99;100.00
59443;BME280;45247;47.466;19.004;2023-04-24T06:03:51;98998.78;;;14.25;100.00
59443;BME280;45247;47.466;19.004;2023-04-24T06:06:20;99006.91;;;14.24;100.00
59443;BME280;45247;47.466;19.004;2023-04-24T06:08:48;99007.47;;;14.37;100.00
59443;BME280;45247;47.466;19.004;2023-04-24T06:11:16;99011.19;;;14.94;100.00
59443;BME280;45247;47.466;19.004;2023-04-24T06:13:44;99012.84;;;15.15;100.00
59443;BME280;45247;47.466;19.004;2023-04-24T06:16:14;99007.38;;;15.26;100.00
59443;BME280;45247;47.466;19.004;2023-04-24T06:18:42;99010.84;;;15.36;100.00
59443;BME280;45247;47.466;19.004;2023-04-24T06:21:14;99020.69;;;15.26;100.00
59443;BME280;45247;47.466;19.004;2023-04-24T06:23:42;99017.78;;;15.00;100.00
59443;BME280;45247;47.466;19.004;2023-04-24T06:26:13;99017.78;;;14.90;100.00
59443;BME280;45247;47.466;19.004;2023-04-24T06:28:41;99011.47;;;14.62;100.00
59443;BME280;45247;47.466;19.004;2023-04-24T06:31:09;99008.09;;;14.50;100.00
59443;BME280;45247;47.466;19.004;2023-04-24T06:33:38;99008.19;;;14.39;100.00
59443;BME280;45247;47.466;19.004;2023-04-24T06:36:07;98997.44;;;14.31;100.00
59443;BME280;45247;47.466;19.004;2023-04-24T06:38:35;99010.19;;;14.07;100.00
59443;BME280;45247;47.466;19.004;2023-04-24T06:41:03;99012.84;;;14.07;100.00
59443;BME280;45247;47.466;19.004;2023-04-24T06:43:31;99006.91;;;14.24;100.00
59443;BME280;45247;47.466;19.004;2023-04-24T06:46:00;99009.00;;;14.30;100.00
59443;BME280;45247;47.466;19.004;2023-04-24T06:48:30;99008.31;;;14.28;100.00
59443;BME280;45247;47.466;19.004;2023-04-24T06:50:59;99014.19;;;14.41;100.00
59443;BME280;45247;47.466;19.004;2023-04-24T06:53:28;99006.72;;;14.16;100.00
59443;BME280;45247;47.466;19.004;2023-04-24T06:55:56;98998.25;;;14.22;100.00
59443;BME280;45247;47.466;19.004;2023-04-24T06:58:24;99000.50;;;14.36;100.00
59443;BME280;45247;47.466;19.004;2023-04-24T07:00:53;98994.38;;;14.45;100.00
59443;BME280;45247;47.466;19.004;2023-04-24T07:03:21;98996.28;;;14.34;100.00
59443;BME280;45247;47.466;19.004;2023-04-24T07:05:49;98995.19;;;14.36;100.00
59443;BME280;45247;47.466;19.004;2023-04-24T07:08:19;98987.38;;;14.44;100.00
59443;BME280;45247;47.466;19.004;2023-04-24T07:10:49;98990.72;;;14.46;100.00
59443;BME280;45247;47.466;19.004;2023-04-24T07:13:17;99001.41;;;14.56;100.00
59443;BME280;45247;47.466;19.004;2023-04-24T07:15:46;99005.47;;;14.70;100.00
59443;BME280;45247;47.466;19.004;2023-04-24T07:18:15;99006.16;;;14.91;100.00
59443;BME280;45247;47.466;19.004;2023-04-24T07:20:44;99010.34;;;14.94;100.00
59443;BME280;45247;47.466;19.004;2023-04-24T07:23:12;98996.25;;;14.74;100.00
59443;BME280;45247;47.466;19.004;2023-04-24T07:25:42;99005.34;;;14.91;100.00
59443;BME280;45247;47.466;19.004;2023-04-24T07:28:11;98998.59;;;15.06;100.00
59443;BME280;45247;47.466;19.004;2023-04-24T07:30:40;99002.22;;;15.15;100.00
59443;BME280;45247;47.466;19.004;2023-04-24T07:33:08;98984.31;;;15.17;100.00
59443;BME280;45247;47.466;19.004;2023-04-24T07:35:38;98989.16;;;15.41;100.00
59443;BME280;45247;47.466;19.004;2023-04-24T07:38:06;98997.91;;;15.70;100.00
59443;BME280;45247;47.466;19.004;2023-04-24T07:40:34;98995.81;;;15.74;100.00
59443;BME280;45247;47.466;19.004;2023-04-24T07:43:03;98994.44;;;15.60;100.00
59443;BME280;45247;47.466;19.004;2023-04-24T07:45:32;99000.06;;;15.94;100.00
59443;BME280;45247;47.466;19.004;2023-04-24T07:48:03;98999.31;;;16.30;100.00
59443;BME280;45247;47.466;19.004;2023-04-24T07:50:31;99003.91;;;16.37;100.00
59443;BME280;45247;47.466;19.004;2023-04-24T07:52:59;99008.31;;;16.46;100.00
59443;BME280;45247;47.466;19.004;2023-04-24T07:55:27;99008.78;;;16.42;100.00
59443;BME280;45247;47.466;19.004;2023-04-24T07:57:55;99011.53;;;16.50;100.00
59443;BME280;45247;47.466;19.004;2023-04-24T08:00:25;99004.44;;;16.59;100.00
59443;BME280;45247;47.466;19.004;2023-04-24T08:02:53;99004.84;;;16.99;100.00
59443;BME280;45247;47.466;19.004;2023-04-24T08:05:22;98995.94;;;17.09;100.00
59443;BME280;45247;47.466;19.004;2023-04-24T08:07:52;99003.63;;;16.94;100.00
59443;BME280;45247;47.466;19.004;2023-04-24T08:10:21;98989.25;;;17.05;100.00
59443;BME280;45247;47.466;19.004;2023-04-24T08:12:50;98995.75;;;17.28;100.00
59443;BME280;45247;47.466;19.004;2023-04-24T08:15:18;98990.41;;;17.28;100.00
59443;BME280;45247;47.466;19.004;2023-04-24T08:17:47;98990.56;;;17.52;100.00
59443;BME280;45247;47.466;19.004;2023-04-24T08:20:16;98997.22;;;17.48;100.00
59443;BME280;45247;47.466;19.004;2023-04-24T08:22:44;98992.84;;;17.21;100.00
59443;BME280;45247;47.466;19.004;2023-04-24T08:25:14;98996.56;;;17.02;100.00
59443;BME280;45247;47.466;19.004;2023-04-24T08:27:42;98995.72;;;16.84;100.00
59443;BME280;45247;47.466;19.004;2023-04-24T08:30:11;98989.19;;;16.96;100.00
59443;BME280;45247;47.466;19.004;2023-04-24T08:32:39;98992.81;;;16.95;100.00
59443;BME280;45247;47.466;19.004;2023-04-24T08:35:09;98983.22;;;17.02;100.00
59443;BME280;45247;47.466;19.004;2023-04-24T08:37:38;98989.31;;;16.95;100.00
59443;BME280;45247;47.466;19.004;2023-04-24T08:40:11;98984.88;;;17.03;100.00
59443;BME280;45247;47.466;19.004;2023-04-24T08:42:41;98990.09;;;17.31;100.00
59443;BME280;45247;47.466;19.004;2023-04-24T08:45:12;98990.56;;;17.52;99.10
59443;BME280;45247;47.466;19.004;2023-04-24T08:47:41;98981.88;;;17.76;99.31
59443;BME280;45247;47.466;19.004;2023-04-24T08:50:12;98975.53;;;18.04;100.00
59443;BME280;45247;47.466;19.004;2023-04-24T08:52:42;98987.31;;;18.43;93.00
59443;BME280;45247;47.466;19.004;2023-04-24T08:55:10;98990.38;;;18.65;87.07
59443;BME280;45247;47.466;19.004;2023-04-24T08:57:39;98982.16;;;18.50;86.91
59443;BME280;45247;47.466;19.004;2023-04-24T09:00:10;98974.63;;;18.45;89.31
59443;BME280;45247;47.466;19.004;2023-04-24T09:02:42;98977.03;;;18.73;84.79
59443;BME280;45247;47.466;19.004;2023-04-24T09:05:12;98973.88;;;18.86;87.87
59443;BME280;45247;47.466;19.004;2023-04-24T09:07:45;98974.53;;;19.12;78.84
59443;BME280;45247;47.466;19.004;2023-04-24T09:10:14;98975.19;;;19.31;77.88
59443;BME280;45247;47.466;19.004;2023-04-24T09:12:44;98971.69;;;19.22;79.25
59443;BME280;45247;47.466;19.004;2023-04-24T09:15:15;98965.97;;;19.41;83.37
59443;BME280;45247;47.466;19.004;2023-04-24T09:17:43;98966.09;;;19.56;76.64
59443;BME280;45247;47.466;19.004;2023-04-24T09:20:14;98964.53;;;19.86;76.76
59443;BME280;45247;47.466;19.004;2023-04-24T09:22:42;98962.84;;;19.93;76.24
59443;BME280;45247;47.466;19.004;2023-04-24T09:25:14;98962.13;;;19.99;76.59
59443;BME280;45247;47.466;19.004;2023-04-24T09:27:42;98960.38;;;19.84;72.17
59443;BME280;45247;47.466;19.004;2023-04-24T09:30:12;98968.22;;;19.85;72.09
59443;BME280;45247;47.466;19.004;2023-04-24T09:32:40;98954.72;;;20.10;72.10
59443;BME280;45247;47.466;19.004;2023-04-24T09:35:10;98946.81;;;20.16;73.43
59443;BME280;45247;47.466;19.004;2023-04-24T09:37:42;98945.13;;;20.46;73.02
59443;BME280;45247;47.466;19.004;2023-04-24T09:40:15;98957.34;;;20.57;67.87
59443;BME280;45247;47.466;19.004;2023-04-24T09:42:44;98947.63;;;20.79;66.90
59443;BME280;45247;47.466;19.004;2023-04-24T09:45:13;98943.63;;;20.75;67.01
59443;BME280;45247;47.466;19.004;2023-04-24T09:47:42;98938.75;;;20.56;63.69
59443;BME280;45247;47.466;19.004;2023-04-24T09:50:14;98942.88;;;20.35;64.31
59443;BME280;45247;47.466;19.004;2023-04-24T09:52:56;98930.06;;;20.54;64.54
59443;BME280;45247;47.466;19.004;2023-04-24T09:55:25;98933.03;;;20.59;65.36
59443;BME280;45247;47.466;19.004;2023-04-24T09:57:55;98939.28;;;20.74;65.82
59443;BME280;45247;47.466;19.004;2023-04-24T10:00:24;98930.19;;;20.60;64.86
59443;BME280;45247;47.466;19.004;2023-04-24T10:02:57;98936.38;;;20.61;65.77
59443;BME280;45247;47.466;19.004;2023-04-24T10:05:28;98939.22;;;20.82;68.11
59443;BME280;45247;47.466;19.004;2023-04-24T10:08:01;98940.16;;;20.89;67.30
59443;BME280;45247;47.466;19.004;2023-04-24T10:10:30;98934.72;;;20.97;66.73
59443;BME280;45247;47.466;19.004;2023-04-24T10:12:59;98937.41;;;20.97;63.81
59443;BME280;45247;47.466;19.004;2023-04-24T10:15:27;98930.38;;;20.96;65.15
59443;BME280;45247;47.466;19.004;2023-04-24T10:17:57;98933.59;;;20.92;64.01
59443;BME280;45247;47.466;19.004;2023-04-24T10:20:27;98920.94;;;21.00;66.34
59443;BME280;45247;47.466;19.004;2023-04-24T10:22:59;98920.59;;;21.04;65.47
59443;BME280;45247;47.466;19.004;2023-04-24T10:25:29;98931.25;;;20.74;65.79
59443;BME280;45247;47.466;19.004;2023-04-24T10:27:59;98927.53;;;20.75;66.66
59443;BME280;45247;47.466;19.004;2023-04-24T10:30:29;98923.03;;;20.53;67.74
59443;BME280;45247;47.466;19.004;2023-04-24T10:33:01;98920.88;;;20.48;67.89
59443;BME280;45247;47.466;19.004;2023-04-24T10:35:31;98925.94;;;20.66;67.59
59443;BME280;45247;47.466;19.004;2023-04-24T10:38:12;98923.28;;;20.81;67.67
59443;BME280;45247;47.466;19.004;2023-04-24T10:40:42;98932.25;;;20.73;66.01
59443;BME280;45247;47.466;19.004;2023-04-24T10:43:10;98933.47;;;20.85;64.40
59443;BME280;45247;47.466;19.004;2023-04-24T10:45:39;98915.38;;;20.87;65.17
59443;BME280;45247;47.466;19.004;2023-04-24T10:48:08;98928.13;;;20.85;63.59
59443;BME280;45247;47.466;19.004;2023-04-24T10:50:45;98927.06;;;20.94;63.42
59443;BME280;45247;47.466;19.004;2023-04-24T10:53:16;98926.44;;;20.84;64.45
59443;BME280;45247;47.466;19.004;2023-04-24T10:55:47;98926.50;;;20.76;64.24
59443;BME280;45247;47.466;19.004;2023-04-24T10:58:16;98922.84;;;20.77;65.20
59443;BME280;45247;47.466;19.004;2023-04-24T11:00:56;98911.53;;;21.05;63.87
59443;BME280;45247;47.466;19.004;2023-04-24T11:03:27;98911.72;;;21.18;65.58
59443;BME280;45247;47.466;19.004;2023-04-24T11:05:57;98904.03;;;21.38;68.22
59443;BME280;45247;47.466;19.004;2023-04-24T11:08:29;98899.81;;;21.20;67.39
59443;BME280;45247;47.466;19.004;2023-04-24T11:11:00;98898.00;;;21.36;66.75
59443;BME280;45247;47.466;19.004;2023-04-24T11:16:51;98896.75;;;21.23;64.27
59443;BME280;45247;47.466;19.004;2023-04-24T11:19:23;98897.25;;;21.57;65.78
59443;BME280;45247;47.466;19.004;2023-04-24T11:21:58;98899.22;;;21.63;64.75
59443;BME280;45247;47.466;19.004;2023-04-24T11:24:33;98893.63;;;21.79;61.73
59443;BME280;45247;47.466;19.004;2023-04-24T11:27:15;98892.31;;;21.75;62.24
59443;BME280;45247;47.466;19.004;2023-04-24T11:29:46;98887.38;;;21.42;63.21
59443;BME280;45247;47.466;19.004;2023-04-24T11:32:23;98893.19;;;21.46;64.88
59443;BME280;45247;47.466;19.004;2023-04-24T11:34:53;98892.06;;;21.55;64.89
59443;BME280;45247;47.466;19.004;2023-04-24T11:37:22;98882.41;;;21.31;61.63
59443;BME280;45247;47.466;19.004;2023-04-24T11:39:53;98884.19;;;21.54;62.26
59443;BME280;45247;47.466;19.004;2023-04-24T11:42:23;98867.88;;;21.70;62.46
59443;BME280;45247;47.466;19.004;2023-04-24T11:44:53;98872.78;;;21.66;61.34
59443;BME280;45247;47.466;19.004;2023-04-24T11:47:28;98867.41;;;21.81;61.16
59443;BME280;45247;47.466;19.004;2023-04-24T11:49:57;98859.66;;;22.08;60.68
59443;BME280;45247;47.466;19.004;2023-04-24T11:52:27;98870.53;;;22.14;61.07
59443;BME280;45247;47.466;19.004;2023-04-24T11:54:56;98856.94;;;22.22;58.94
59443;BME280;45247;47.466;19.004;2023-04-24T11:57:28;98850.06;;;21.84;57.98
59443;BME280;45247;47.466;19.004;2023-04-24T12:00:01;98851.03;;;21.76;58.46
59443;BME280;45247;47.466;19.004;2023-04-24T12:02:32;98847.75;;;21.59;59.64
59443;BME280;45247;47.466;19.004;2023-04-24T12:05:03;98841.75;;;21.42;58.61
59443;BME280;45247;47.466;19.004;2023-04-24T12:07:40;98837.56;;;21.25;59.57
59443;BME280;45247;47.466;19.004;2023-04-24T12:10:11;98842.91;;;21.25;60.79
59443;BME280;45247;47.466;19.004;2023-04-24T12:12:39;98842.75;;;21.12;59.37
59443;BME280;45247;47.466;19.004;2023-04-24T12:15:08;98846.69;;;21.31;59.21
59443;BME280;45247;47.466;19.004;2023-04-24T12:17:41;98836.81;;;21.31;59.37
59443;BME280;45247;47.466;19.004;2023-04-24T12:20:11;98829.41;;;21.18;64.30
59443;BME280;45247;47.466;19.004;2023-04-24T12:22:44;98830.97;;;20.98;69.15
59443;BME280;45247;47.466;19.004;2023-04-24T12:25:16;98827.25;;;20.69;71.16
59443;BME280;45247;47.466;19.004;2023-04-24T12:27:45;98830.94;;;20.45;72.11
59443;BME280;45247;47.466;19.004;2023-04-24T12:30:16;98815.94;;;20.36;72.94
59443;BME280;45247;47.466;19.004;2023-04-24T12:32:46;98825.13;;;20.19;72.23
59443;BME280;45247;47.466;19.004;2023-04-24T12:35:19;98822.16;;;20.14;73.84
59443;BME280;45247;47.466;19.004;2023-04-24T12:37:48;98818.56;;;19.98;74.95
59443;BME280;45247;47.466;19.004;2023-04-24T12:40:20;98818.25;;;19.93;75.06
59443;BME280;45247;47.466;19.004;2023-04-24T12:42:49;98816.13;;;19.89;78.69
59443;BME280;45247;47.466;19.004;2023-04-24T12:45:18;98820.63;;;19.88;79.85
59443;BME280;45247;47.466;19.004;2023-04-24T12:47:48;98821.66;;;19.87;81.09
59443;BME280;45247;47.466;19.004;2023-04-24T12:50:18;98809.72;;;19.67;77.69
59443;BME280;45247;47.466;19.004;2023-04-24T12:52:47;98815.16;;;19.42;78.01
59443;BME280;45247;47.466;19.004;2023-04-24T12:55:15;98807.38;;;19.24;78.66
59443;BME280;45247;47.466;19.004;2023-04-24T12:57:44;98809.28;;;19.08;78.83
59443;BME280;45247;47.466;19.004;2023-04-24T13:00:13;98805.59;;;19.09;83.05